sensor_id;sensor_type;location;lat;lon;timestamp;temperature;humidity
51035;DHT22;37062;52.546;13.230;2023-11-21T00:00:50;10.00;99.90
51035;DHT22;37062;52.546;13.230;2023-11-21T00:03:18;9.90;99.90
51035;DHT22;37062;52.546;13.230;2023-11-21T00:05:47;9.90;99.90
51035;DHT22;37062;52.546;13.230;2023-11-21T00:08:15;10.00;99.90
51035;DHT22;37062;52.546;13.230;2023-11-21T00:10:43;10.00;99.90
51035;DHT22;37062;52.546;13.230;2023-11-21T00:13:13;9.90;99.90
51035;DHT22;37062;52.546;13.230;2023-11-21T00:15:41;9.80;99.90
51035;DHT22;37062;52.546;13.230;2023-11-21T00:18:09;9.70;99.90
51035;DHT22;37062;52.546;13.230;2023-11-21T00:20:38;9.60;99.90
51035;DHT22;37062;52.546;13.230;2023-11-21T00:23:06;9.60;99.90
51035;DHT22;37062;52.546;13.230;2023-11-21T00:25:36;9.50;99.90
51035;DHT22;37062;52.546;13.230;2023-11-21T00:28:04;9.30;99.90
51035;DHT22;37062;52.546;13.230;2023-11-21T00:30:34;9.30;99.90
51035;DHT22;37062;52.546;13.230;2023-11-21T00:33:02;9.30;99.90
51035;DHT22;37062;52.546;13.230;2023-11-21T00:35:31;9.40;99.90
51035;DHT22;37062;52.546;13.230;2023-11-21T00:37:59;9.40;99.90
51035;DHT22;37062;52.546;13.230;2023-11-21T00:40:28;9.30;99.90
51035;DHT22;37062;52.546;13.230;2023-11-21T00:42:56;9.40;99.90
51035;DHT22;37062;52.546;13.230;2023-11-21T00:45:24;9.30;99.90
51035;DHT22;37062;52.546;13.230;2023-11-21T00:47:54;9.40;99.90
51035;DHT22;37062;52.546;13.230;2023-11-21T00:50:23;9.30;99.90
51035;DHT22;37062;52.546;13.230;2023-11-21T00:52:51;9.30;99.90
51035;DHT22;37062;52.546;13.230;2023-11-21T00:55:19;9.40;99.90
51035;DHT22;37062;52.546;13.230;2023-11-21T00:57:48;9.40;99.90
51035;DHT22;37062;52.546;13.230;2023-11-21T01:00:17;9.20;99.90
51035;DHT22;37062;52.546;13.230;2023-11-21T01:02:45;9.20;99.90
51035;DHT22;37062;52.546;13.230;2023-11-21T01:05:16;9.20;99.90
51035;DHT22;37062;52.546;13.230;2023-11-21T01:07:45;9.20;99.90
51035;DHT22;37062;52.546;13.230;2023-11-21T01:10:13;9.10;99.90
51035;DHT22;37062;52.546;13.230;2023-11-21T01:12:44;9.00;99.90
51035;DHT22;37062;52.546;13.230;2023-11-21T01:15:12;9.00;99.90
51035;DHT22;37062;52.546;13.230;2023-11-21T01:17:40;9.00;99.90
51035;DHT22;37062;52.546;13.230;2023-11-21T01:20:10;9.00;99.90
51035;DHT22;37062;52.546;13.230;2023-11-21T01:22:42;9.10;99.90
51035;DHT22;37062;52.546;13.230;2023-11-21T01:25:11;9.10;99.90
51035;DHT22;37062;52.546;13.230;2023-11-21T01:27:42;9.20;99.90
51035;DHT22;37062;52.546;13.230;2023-11-21T01:30:11;9.20;99.90
51035;DHT22;37062;52.546;13.230;2023-11-21T01:32:39;9.10;99.90
51035;DHT22;37062;52.546;13.230;2023-11-21T01:35:08;9.00;99.90
51035;DHT22;37062;52.546;13.230;2023-11-21T01:37:38;8.90;99.90
51035;DHT22;37062;52.546;13.230;2023-11-21T01:40:09;8.90;99.90
51035;DHT22;37062;52.546;13.230;2023-11-21T01:42:42;8.90;99.90
51035;DHT22;37062;52.546;13.230;2023-11-21T01:45:12;9.00;99.90
51035;DHT22;37062;52.546;13.230;2023-11-21T01:47:41;8.90;99.90
51035;DHT22;37062;52.546;13.230;2023-11-21T01:50:15;9.00;99.90
51035;DHT22;37062;52.546;13.230;2023-11-21T01:52:50;9.00;99.90
51035;DHT22;37062;52.546;13.230;2023-11-21T01:55:21;9.00;99.90
51035;DHT22;37062;52.546;13.230;2023-11-21T01:57:55;8.80;99.90
51035;DHT22;37062;52.546;13.230;2023-11-21T02:00:25;8.70;99.90
51035;DHT22;37062;52.546;13.230;2023-11-21T02:02:56;8.80;99.90
51035;DHT22;37062;52.546;13.230;2023-11-21T02:05:26;8.80;99.90
51035;DHT22;37062;52.546;13.230;2023-11-21T02:07:58;8.80;99.90
51035;DHT22;37062;52.546;13.230;2023-11-21T02:10:29;8.70;99.90
51035;DHT22;37062;52.546;13.230;2023-11-21T02:12:58;8.60;99.90
51035;DHT22;37062;52.546;13.230;2023-11-21T02:15:30;8.40;99.90
51035;DHT22;37062;52.546;13.230;2023-11-21T02:17:59;8.30;99.90
51035;DHT22;37062;52.546;13.230;2023-11-21T02:20:28;8.30;99.90
51035;DHT22;37062;52.546;13.230;2023-11-21T02:22:58;8.30;99.90
51035;DHT22;37062;52.546;13.230;2023-11-21T02:25:29;8.30;99.90
51035;DHT22;37062;52.546;13.230;2023-11-21T02:27:58;8.30;99.90
51035;DHT22;37062;52.546;13.230;2023-11-21T02:30:27;8.30;99.90
51035;DHT22;37062;52.546;13.230;2023-11-21T02:32:57;8.30;99.90
51035;DHT22;37062;52.546;13.230;2023-11-21T02:35:26;8.40;99.90
51035;DHT22;37062;52.546;13.230;2023-11-21T02:37:55;8.30;99.90
51035;DHT22;37062;52.546;13.230;2023-11-21T02:40:25;8.30;99.90
51035;DHT22;37062;52.546;13.230;2023-11-21T02:42:54;8.20;99.90
51035;DHT22;37062;52.546;13.230;2023-11-21T02:45:25;8.20;99.90
51035;DHT22;37062;52.546;13.230;2023-11-21T02:47:54;8.20;99.90
51035;DHT22;37062;52.546;13.230;2023-11-21T02:50:24;8.20;99.90
51035;DHT22;37062;52.546;13.230;2023-11-21T02:52:52;8.20;99.90
51035;DHT22;37062;52.546;13.230;2023-11-21T02:55:21;8.10;99.90
51035;DHT22;37062;52.546;13.230;2023-11-21T02:57:54;8.10;99.90
51035;DHT22;37062;52.546;13.230;2023-11-21T03:00:24;8.10;99.90
51035;DHT22;37062;52.546;13.230;2023-11-21T03:02:53;8.10;99.90
51035;DHT22;37062;52.546;13.230;2023-11-21T03:05:22;8.00;99.90
51035;DHT22;37062;52.546;13.230;2023-11-21T03:07:50;8.00;99.90
51035;DHT22;37062;52.546;13.230;2023-11-21T03:10:19;8.00;99.90
51035;DHT22;37062;52.546;13.230;2023-11-21T03:12:47;7.90;99.90
51035;DHT22;37062;52.546;13.230;2023-11-21T03:15:16;7.80;99.90
51035;DHT22;37062;52.546;13.230;2023-11-21T03:17:44;7.80;99.90
51035;DHT22;37062;52.546;13.230;2023-11-21T03:20:13;7.90;99.90
51035;DHT22;37062;52.546;13.230;2023-11-21T03:22:43;7.90;99.90
51035;DHT22;37062;52.546;13.230;2023-11-21T03:25:11;7.90;99.90
51035;DHT22;37062;52.546;13.230;2023-11-21T03:27:39;7.80;99.90
51035;DHT22;37062;52.546;13.230;2023-11-21T03:30:10;7.80;99.90
51035;DHT22;37062;52.546;13.230;2023-11-21T03:32:40;7.90;99.90
51035;DHT22;37062;52.546;13.230;2023-11-21T03:35:08;8.00;99.90
51035;DHT22;37062;52.546;13.230;2023-11-21T03:37:36;8.00;99.90
51035;DHT22;37062;52.546;13.230;2023-11-21T03:40:09;8.10;99.90
51035;DHT22;37062;52.546;13.230;2023-11-21T03:42:37;8.20;99.90
51035;DHT22;37062;52.546;13.230;2023-11-21T03:45:06;8.20;99.90
51035;DHT22;37062;52.546;13.230;2023-11-21T03:47:35;8.00;99.90
51035;DHT22;37062;52.546;13.230;2023-11-21T03:50:06;7.90;99.90
51035;DHT22;37062;52.546;13.230;2023-11-21T03:52:35;7.80;99.90
51035;DHT22;37062;52.546;13.230;2023-11-21T03:55:04;7.90;99.90
51035;DHT22;37062;52.546;13.230;2023-11-21T03:57:32;7.80;99.90
51035;DHT22;37062;52.546;13.230;2023-11-21T04:00:01;7.80;99.90
51035;DHT22;37062;52.546;13.230;2023-11-21T04:02:37;7.80;99.90
51035;DHT22;37062;52.546;13.230;2023-11-21T04:05:08;7.80;99.90
51035;DHT22;37062;52.546;13.230;2023-11-21T04:07:36;8.00;99.90
51035;DHT22;37062;52.546;13.230;2023-11-21T04:10:07;7.90;99.90
51035;DHT22;37062;52.546;13.230;2023-11-21T04:12:36;7.90;99.90
51035;DHT22;37062;52.546;13.230;2023-11-21T04:15:05;7.90;99.90
51035;DHT22;37062;52.546;13.230;2023-11-21T04:17:35;7.90;99.90
51035;DHT22;37062;52.546;13.230;2023-11-21T04:20:05;7.90;99.90
51035;DHT22;37062;52.546;13.230;2023-11-21T04:22:41;7.90;99.90
51035;DHT22;37062;52.546;13.230;2023-11-21T04:25:12;7.90;99.90
51035;DHT22;37062;52.546;13.230;2023-11-21T04:27:41;7.80;99.90
51035;DHT22;37062;52.546;13.230;2023-11-21T04:30:12;7.70;99.90
51035;DHT22;37062;52.546;13.230;2023-11-21T04:32:40;7.80;99.90
51035;DHT22;37062;52.546;13.230;2023-11-21T04:35:09;7.80;99.90
51035;DHT22;37062;52.546;13.230;2023-11-21T04:37:37;7.70;99.90
51035;DHT22;37062;52.546;13.230;2023-11-21T04:40:08;7.70;99.90
51035;DHT22;37062;52.546;13.230;2023-11-21T04:42:37;7.70;99.90
51035;DHT22;37062;52.546;13.230;2023-11-21T04:45:06;7.70;99.90
51035;DHT22;37062;52.546;13.230;2023-11-21T04:47:38;7.80;99.90
51035;DHT22;37062;52.546;13.230;2023-11-21T04:50:07;7.80;99.90
51035;DHT22;37062;52.546;13.230;2023-11-21T04:52:36;7.90;99.90
51035;DHT22;37062;52.546;13.230;2023-11-21T04:55:05;7.90;99.90
51035;DHT22;37062;52.546;13.230;2023-11-21T04:57:35;7.90;99.90
51035;DHT22;37062;52.546;13.230;2023-11-21T05:00:05;7.90;99.90
51035;DHT22;37062;52.546;13.230;2023-11-21T05:02:33;7.80;99.90
51035;DHT22;37062;52.546;13.230;2023-11-21T05:05:03;7.80;99.90
51035;DHT22;37062;52.546;13.230;2023-11-21T05:07:33;7.80;99.90
51035;DHT22;37062;52.546;13.230;2023-11-21T05:10:04;7.80;99.90
51035;DHT22;37062;52.546;13.230;2023-11-21T05:12:36;7.70;99.90
51035;DHT22;37062;52.546;13.230;2023-11-21T05:15:06;7.80;99.90
51035;DHT22;37062;52.546;13.230;2023-11-21T05:17:44;7.70;99.90
51035;DHT22;37062;52.546;13.230;2023-11-21T05:20:13;7.70;99.90
51035;DHT22;37062;52.546;13.230;2023-11-21T05:22:45;7.70;99.90
51035;DHT22;37062;52.546;13.230;2023-11-21T05:25:13;7.50;99.90
51035;DHT22;37062;52.546;13.230;2023-11-21T05:27:43;7.40;99.90
51035;DHT22;37062;52.546;13.230;2023-11-21T05:30:12;7.40;99.90
51035;DHT22;37062;52.546;13.230;2023-11-21T05:32:41;7.40;99.90
51035;DHT22;37062;52.546;13.230;2023-11-21T05:35:11;7.30;99.90
51035;DHT22;37062;52.546;13.230;2023-11-21T05:37:43;7.30;99.90
51035;DHT22;37062;52.546;13.230;2023-11-21T05:40:12;7.40;99.90
51035;DHT22;37062;52.546;13.230;2023-11-21T05:42:41;7.40;99.90
51035;DHT22;37062;52.546;13.230;2023-11-21T05:45:10;7.40;99.90
51035;DHT22;37062;52.546;13.230;2023-11-21T05:47:41;7.40;99.90
51035;DHT22;37062;52.546;13.230;2023-11-21T05:50:10;7.30;99.90
51035;DHT22;37062;52.546;13.230;2023-11-21T05:52:42;7.30;99.90
51035;DHT22;37062;52.546;13.230;2023-11-21T05:55:11;7.30;99.90
51035;DHT22;37062;52.546;13.230;2023-11-21T05:57:41;7.40;99.90
51035;DHT22;37062;52.546;13.230;2023-11-21T06:00:14;7.40;99.90
51035;DHT22;37062;52.546;13.230;2023-11-21T06:02:47;7.40;99.90
51035;DHT22;37062;52.546;13.230;2023-11-21T06:05:18;7.40;99.90
51035;DHT22;37062;52.546;13.230;2023-11-21T06:07:47;7.30;99.90
51035;DHT22;37062;52.546;13.230;2023-11-21T06:10:15;7.20;99.90
51035;DHT22;37062;52.546;13.230;2023-11-21T06:12:46;7.30;99.90
51035;DHT22;37062;52.546;13.230;2023-11-21T06:15:17;7.10;99.90
51035;DHT22;37062;52.546;13.230;2023-11-21T06:17:46;7.00;99.90
51035;DHT22;37062;52.546;13.230;2023-11-21T06:20:19;7.00;99.90
51035;DHT22;37062;52.546;13.230;2023-11-21T06:22:48;7.00;99.90
51035;DHT22;37062;52.546;13.230;2023-11-21T06:25:17;7.00;99.90
51035;DHT22;37062;52.546;13.230;2023-11-21T06:27:47;7.00;99.90
51035;DHT22;37062;52.546;13.230;2023-11-21T06:30:17;7.00;99.90
51035;DHT22;37062;52.546;13.230;2023-11-21T06:32:46;7.00;99.90
51035;DHT22;37062;52.546;13.230;2023-11-21T06:35:15;6.90;99.90
51035;DHT22;37062;52.546;13.230;2023-11-21T06:37:44;6.90;99.90
51035;DHT22;37062;52.546;13.230;2023-11-21T06:40:17;6.90;99.90
51035;DHT22;37062;52.546;13.230;2023-11-21T06:42:47;6.90;99.90
51035;DHT22;37062;52.546;13.230;2023-11-21T06:45:17;6.90;99.90
51035;DHT22;37062;52.546;13.230;2023-11-21T06:47:47;6.90;99.90
51035;DHT22;37062;52.546;13.230;2023-11-21T06:50:16;6.90;99.90
51035;DHT22;37062;52.546;13.230;2023-11-21T06:52:44;6.80;99.90
51035;DHT22;37062;52.546;13.230;2023-11-21T06:55:12;6.80;99.90
51035;DHT22;37062;52.546;13.230;2023-11-21T06:57:41;6.90;99.90
51035;DHT22;37062;52.546;13.230;2023-11-21T07:00:10;7.00;99.90
51035;DHT22;37062;52.546;13.230;2023-11-21T07:02:40;6.90;99.90
51035;DHT22;37062;52.546;13.230;2023-11-21T07:05:09;6.90;99.90
51035;DHT22;37062;52.546;13.230;2023-11-21T07:07:37;6.90;99.90
51035;DHT22;37062;52.546;13.230;2023-11-21T07:10:07;6.90;99.90
51035;DHT22;37062;52.546;13.230;2023-11-21T07:12:36;6.90;99.90
51035;DHT22;37062;52.546;13.230;2023-11-21T07:15:05;7.00;99.90
51035;DHT22;37062;52.546;13.230;2023-11-21T07:17:36;7.00;99.90
51035;DHT22;37062;52.546;13.230;2023-11-21T07:20:10;7.00;99.90
51035;DHT22;37062;52.546;13.230;2023-11-21T07:22:39;7.00;99.90
51035;DHT22;37062;52.546;13.230;2023-11-21T07:25:07;7.00;99.90
51035;DHT22;37062;52.546;13.230;2023-11-21T07:27:37;7.00;99.90
51035;DHT22;37062;52.546;13.230;2023-11-21T07:30:06;6.90;99.90
51035;DHT22;37062;52.546;13.230;2023-11-21T07:32:37;6.90;99.90
51035;DHT22;37062;52.546;13.230;2023-11-21T07:35:09;6.90;99.90
51035;DHT22;37062;52.546;13.230;2023-11-21T07:37:37;7.00;99.90
51035;DHT22;37062;52.546;13.230;2023-11-21T07:40:07;7.00;99.90
51035;DHT22;37062;52.546;13.230;2023-11-21T07:42:38;6.90;99.90
51035;DHT22;37062;52.546;13.230;2023-11-21T07:45:07;6.80;99.90
51035;DHT22;37062;52.546;13.230;2023-11-21T07:47:36;6.80;99.90
51035;DHT22;37062;52.546;13.230;2023-11-21T07:50:08;6.80;99.90
51035;DHT22;37062;52.546;13.230;2023-11-21T07:52:37;6.90;99.90
51035;DHT22;37062;52.546;13.230;2023-11-21T07:55:06;7.00;99.90
51035;DHT22;37062;52.546;13.230;2023-11-21T07:57:34;7.00;99.90
51035;DHT22;37062;52.546;13.230;2023-11-21T08:00:03;7.00;99.90
51035;DHT22;37062;52.546;13.230;2023-11-21T08:02:38;7.10;99.90
51035;DHT22;37062;52.546;13.230;2023-11-21T08:05:10;7.20;99.90
51035;DHT22;37062;52.546;13.230;2023-11-21T08:07:51;7.20;99.90
51035;DHT22;37062;52.546;13.230;2023-11-21T08:10:19;7.20;99.90
51035;DHT22;37062;52.546;13.230;2023-11-21T08:12:48;7.20;99.90
51035;DHT22;37062;52.546;13.230;2023-11-21T08:15:17;7.10;99.90
51035;DHT22;37062;52.546;13.230;2023-11-21T08:17:46;7.10;99.90
51035;DHT22;37062;52.546;13.230;2023-11-21T08:20:16;7.10;99.90
51035;DHT22;37062;52.546;13.230;2023-11-21T08:22:45;7.20;99.90
51035;DHT22;37062;52.546;13.230;2023-11-21T08:25:15;7.20;99.90
51035;DHT22;37062;52.546;13.230;2023-11-21T08:27:47;7.20;99.90
51035;DHT22;37062;52.546;13.230;2023-11-21T08:30:16;7.10;99.90
51035;DHT22;37062;52.546;13.230;2023-11-21T08:32:46;7.10;99.90
51035;DHT22;37062;52.546;13.230;2023-11-21T08:35:16;7.00;99.90
51035;DHT22;37062;52.546;13.230;2023-11-21T08:37:45;7.00;99.90
51035;DHT22;37062;52.546;13.230;2023-11-21T08:40:14;7.00;99.90
51035;DHT22;37062;52.546;13.230;2023-11-21T08:42:44;7.00;99.90
51035;DHT22;37062;52.546;13.230;2023-11-21T08:45:13;6.90;99.90
51035;DHT22;37062;52.546;13.230;2023-11-21T08:47:41;6.90;99.90
51035;DHT22;37062;52.546;13.230;2023-11-21T08:50:11;7.00;99.90
51035;DHT22;37062;52.546;13.230;2023-11-21T08:52:41;7.00;99.90
51035;DHT22;37062;52.546;13.230;2023-11-21T08:55:10;6.90;99.90
51035;DHT22;37062;52.546;13.230;2023-11-21T08:57:40;6.90;99.90
51035;DHT22;37062;52.546;13.230;2023-11-21T09:00:10;7.00;99.90
51035;DHT22;37062;52.546;13.230;2023-11-21T09:02:39;7.00;99.90
51035;DHT22;37062;52.546;13.230;2023-11-21T09:05:09;7.00;99.90
51035;DHT22;37062;52.546;13.230;2023-11-21T09:07:39;7.00;99.90
51035;DHT22;37062;52.546;13.230;2023-11-21T09:10:09;6.90;99.90
51035;DHT22;37062;52.546;13.230;2023-11-21T09:12:38;6.90;99.90
51035;DHT22;37062;52.546;13.230;2023-11-21T09:15:07;6.90;99.90
51035;DHT22;37062;52.546;13.230;2023-11-21T09:17:38;6.90;99.90
51035;DHT22;37062;52.546;13.230;2023-11-21T09:20:08;6.90;99.90
51035;DHT22;37062;52.546;13.230;2023-11-21T09:22:37;6.90;99.90
51035;DHT22;37062;52.546;13.230;2023-11-21T09:25:06;6.90;99.90
51035;DHT22;37062;52.546;13.230;2023-11-21T09:27:37;6.90;99.90
51035;DHT22;37062;52.546;13.230;2023-11-21T09:30:06;6.80;99.90
51035;DHT22;37062;52.546;13.230;2023-11-21T09:32:38;6.80;99.90
51035;DHT22;37062;52.546;13.230;2023-11-21T09:35:08;6.80;99.90
51035;DHT22;37062;52.546;13.230;2023-11-21T09:37:36;6.90;99.90
51035;DHT22;37062;52.546;13.230;2023-11-21T09:40:10;7.00;99.90
51035;DHT22;37062;52.546;13.230;2023-11-21T09:42:57;7.00;99.90
51035;DHT22;37062;52.546;13.230;2023-11-21T09:45:28;7.10;99.90
51035;DHT22;37062;52.546;13.230;2023-11-21T09:47:58;7.20;99.90
51035;DHT22;37062;52.546;13.230;2023-11-21T09:50:27;7.10;99.90
51035;DHT22;37062;52.546;13.230;2023-11-21T09:52:58;7.00;99.90
51035;DHT22;37062;52.546;13.230;2023-11-21T09:55:28;6.90;99.90
51035;DHT22;37062;52.546;13.230;2023-11-21T09:57:59;7.00;99.90
51035;DHT22;37062;52.546;13.230;2023-11-21T10:00:30;7.00;99.90
51035;DHT22;37062;52.546;13.230;2023-11-21T10:03:00;7.00;99.90
51035;DHT22;37062;52.546;13.230;2023-11-21T10:05:30;7.00;99.90
51035;DHT22;37062;52.546;13.230;2023-11-21T10:08:01;7.00;99.90
51035;DHT22;37062;52.546;13.230;2023-11-21T10:10:31;7.00;99.90
51035;DHT22;37062;52.546;13.230;2023-11-21T10:13:04;6.90;99.90
51035;DHT22;37062;52.546;13.230;2023-11-21T10:15:34;6.90;99.90
51035;DHT22;37062;52.546;13.230;2023-11-21T10:18:04;6.80;99.90
51035;DHT22;37062;52.546;13.230;2023-11-21T10:20:33;6.70;99.90
51035;DHT22;37062;52.546;13.230;2023-11-21T10:23:04;6.70;99.90
51035;DHT22;37062;52.546;13.230;2023-11-21T10:25:34;6.60;99.90
51035;DHT22;37062;52.546;13.230;2023-11-21T10:28:05;6.70;99.90
51035;DHT22;37062;52.546;13.230;2023-11-21T10:30:35;6.60;99.90
51035;DHT22;37062;52.546;13.230;2023-11-21T10:33:04;6.50;99.90
51035;DHT22;37062;52.546;13.230;2023-11-21T10:35:39;6.50;99.90
51035;DHT22;37062;52.546;13.230;2023-11-21T10:38:14;6.50;99.90
51035;DHT22;37062;52.546;13.230;2023-11-21T10:40:42;6.50;99.90
51035;DHT22;37062;52.546;13.230;2023-11-21T10:43:13;6.40;99.90
51035;DHT22;37062;52.546;13.230;2023-11-21T10:45:43;6.40;99.90
51035;DHT22;37062;52.546;13.230;2023-11-21T10:48:13;6.40;99.90
51035;DHT22;37062;52.546;13.230;2023-11-21T10:50:44;6.40;99.90
51035;DHT22;37062;52.546;13.230;2023-11-21T10:53:13;6.40;99.90
51035;DHT22;37062;52.546;13.230;2023-11-21T10:55:42;6.40;99.90
51035;DHT22;37062;52.546;13.230;2023-11-21T10:58:14;6.40;99.90
51035;DHT22;37062;52.546;13.230;2023-11-21T11:00:44;6.40;99.90
51035;DHT22;37062;52.546;13.230;2023-11-21T11:03:13;6.50;99.90
51035;DHT22;37062;52.546;13.230;2023-11-21T11:05:44;6.50;99.90
51035;DHT22;37062;52.546;13.230;2023-11-21T11:08:21;6.50;99.90
51035;DHT22;37062;52.546;13.230;2023-11-21T11:10:55;6.40;99.90
51035;DHT22;37062;52.546;13.230;2023-11-21T11:13:25;6.40;99.90
51035;DHT22;37062;52.546;13.230;2023-11-21T11:15:58;6.40;99.90
51035;DHT22;37062;52.546;13.230;2023-11-21T11:18:29;6.40;99.90
51035;DHT22;37062;52.546;13.230;2023-11-21T11:21:05;6.30;99.90
51035;DHT22;37062;52.546;13.230;2023-11-21T11:23:45;6.40;99.90
51035;DHT22;37062;52.546;13.230;2023-11-21T11:26:23;6.40;99.90
51035;DHT22;37062;52.546;13.230;2023-11-21T11:29:03;6.40;99.90
51035;DHT22;37062;52.546;13.230;2023-11-21T11:31:42;6.40;99.90
51035;DHT22;37062;52.546;13.230;2023-11-21T11:34:20;6.40;99.90
51035;DHT22;37062;52.546;13.230;2023-11-21T11:37:00;6.50;99.90
51035;DHT22;37062;52.546;13.230;2023-11-21T11:39:30;6.50;99.90
51035;DHT22;37062;52.546;13.230;2023-11-21T11:42:02;6.40;99.90
51035;DHT22;37062;52.546;13.230;2023-11-21T11:44:49;6.40;99.90
51035;DHT22;37062;52.546;13.230;2023-11-21T11:47:22;6.40;99.90
51035;DHT22;37062;52.546;13.230;2023-11-21T11:50:00;6.40;99.90
51035;DHT22;37062;52.546;13.230;2023-11-21T11:52:36;6.40;99.90
51035;DHT22;37062;52.546;13.230;2023-11-21T11:55:07;6.40;99.90
51035;DHT22;37062;52.546;13.230;2023-11-21T11:57:39;6.50;99.90
51035;DHT22;37062;52.546;13.230;2023-11-21T12:02:48;6.60;99.90
51035;DHT22;37062;52.546;13.230;2023-11-21T12:05:20;6.70;99.90
51035;DHT22;37062;52.546;13.230;2023-11-21T12:07:50;6.70;99.90
51035;DHT22;37062;52.546;13.230;2023-11-21T12:10:21;6.80;99.90
51035;DHT22;37062;52.546;13.230;2023-11-21T12:12:53;6.60;99.90
51035;DHT22;37062;52.546;13.230;2023-11-21T12:15:23;6.60;99.90
51035;DHT22;37062;52.546;13.230;2023-11-21T12:17:52;6.60;99.90
51035;DHT22;37062;52.546;13.230;2023-11-21T12:20:22;6.50;99.90
51035;DHT22;37062;52.546;13.230;2023-11-21T12:22:52;6.40;99.90
51035;DHT22;37062;52.546;13.230;2023-11-21T12:25:21;6.30;99.90
51035;DHT22;37062;52.546;13.230;2023-11-21T12:27:50;6.20;99.90
51035;DHT22;37062;52.546;13.230;2023-11-21T12:30:21;6.10;99.90
51035;DHT22;37062;52.546;13.230;2023-11-21T12:32:52;6.00;99.90
51035;DHT22;37062;52.546;13.230;2023-11-21T12:35:22;6.00;99.90
51035;DHT22;37062;52.546;13.230;2023-11-21T12:37:52;6.10;99.90
51035;DHT22;37062;52.546;13.230;2023-11-21T12:40:21;6.20;99.90
51035;DHT22;37062;52.546;13.230;2023-11-21T12:42:52;6.30;99.90
51035;DHT22;37062;52.546;13.230;2023-11-21T12:45:23;6.40;99.90
51035;DHT22;37062;52.546;13.230;2023-11-21T12:47:55;6.50;99.90
51035;DHT22;37062;52.546;13.230;2023-11-21T12:50:28;6.40;99.90
51035;DHT22;37062;52.546;13.230;2023-11-21T12:53:00;6.40;99.90
51035;DHT22;37062;52.546;13.230;2023-11-21T12:55:30;6.50;99.90
51035;DHT22;37062;52.546;13.230;2023-11-21T12:58:02;6.40;99.90
51035;DHT22;37062;52.546;13.230;2023-11-21T13:00:36;6.40;99.90
51035;DHT22;37062;52.546;13.230;2023-11-21T13:03:08;6.30;99.90
51035;DHT22;37062;52.546;13.230;2023-11-21T13:05:40;6.20;99.90
51035;DHT22;37062;52.546;13.230;2023-11-21T13:08:12;6.20;99.90
51035;DHT22;37062;52.546;13.230;2023-11-21T13:10:44;6.10;99.90
51035;DHT22;37062;52.546;13.230;2023-11-21T13:13:14;6.10;99.90
51035;DHT22;37062;52.546;13.230;2023-11-21T13:15:49;6.10;99.90
51035;DHT22;37062;52.546;13.230;2023-11-21T13:18:19;6.10;99.90
51035;DHT22;37062;52.546;13.230;2023-11-21T13:20:49;6.10;99.90
51035;DHT22;37062;52.546;13.230;2023-11-21T13:23:17;6.00;99.90
51035;DHT22;37062;52.546;13.230;2023-11-21T13:25:46;6.00;99.90
51035;DHT22;37062;52.546;13.230;2023-11-21T13:28:27;5.90;99.90
51035;DHT22;37062;52.546;13.230;2023-11-21T13:31:00;5.80;99.90
51035;DHT22;37062;52.546;13.230;2023-11-21T13:33:39;5.80;99.90
51035;DHT22;37062;52.546;13.230;2023-11-21T13:36:10;5.80;99.90
51035;DHT22;37062;52.546;13.230;2023-11-21T13:38:41;5.70;99.90
51035;DHT22;37062;52.546;13.230;2023-11-21T13:41:11;5.70;99.90
51035;DHT22;37062;52.546;13.230;2023-11-21T13:43:41;5.80;99.90
51035;DHT22;37062;52.546;13.230;2023-11-21T13:46:12;5.80;99.90
51035;DHT22;37062;52.546;13.230;2023-11-21T13:48:45;5.80;99.90
51035;DHT22;37062;52.546;13.230;2023-11-21T13:51:18;5.70;99.90
51035;DHT22;37062;52.546;13.230;2023-11-21T13:53:48;5.60;99.90
51035;DHT22;37062;52.546;13.230;2023-11-21T13:56:19;5.60;99.90
51035;DHT22;37062;52.546;13.230;2023-11-21T13:58:52;5.70;99.90
51035;DHT22;37062;52.546;13.230;2023-11-21T14:01:22;5.80;99.90
51035;DHT22;37062;52.546;13.230;2023-11-21T14:04:11;5.70;99.90
51035;DHT22;37062;52.546;13.230;2023-11-21T14:06:48;5.60;99.90
51035;DHT22;37062;52.546;13.230;2023-11-21T14:09:18;5.60;99.90
51035;DHT22;37062;52.546;13.230;2023-11-21T14:11:51;5.50;99.90
51035;DHT22;37062;52.546;13.230;2023-11-21T14:14:22;5.60;99.90
51035;DHT22;37062;52.546;13.230;2023-11-21T14:16:52;5.70;99.90
51035;DHT22;37062;52.546;13.230;2023-11-21T14:19:22;5.70;99.90
51035;DHT22;37062;52.546;13.230;2023-11-21T14:21:54;5.60;99.90
51035;DHT22;37062;52.546;13.230;2023-11-21T14:24:22;5.70;99.90
51035;DHT22;37062;52.546;13.230;2023-11-21T14:26:52;5.50;99.90
51035;DHT22;37062;52.546;13.230;2023-11-21T14:29:21;5.40;99.90
51035;DHT22;37062;52.546;13.230;2023-11-21T14:31:51;5.30;99.90
51035;DHT22;37062;52.546;13.230;2023-11-21T14:34:24;5.40;99.90
51035;DHT22;37062;52.546;13.230;2023-11-21T14:36:53;5.30;99.90
51035;DHT22;37062;52.546;13.230;2023-11-21T14:39:21;5.30;99.90
51035;DHT22;37062;52.546;13.230;2023-11-21T14:41:54;5.20;99.90
51035;DHT22;37062;52.546;13.230;2023-11-21T14:44:23;5.30;99.90
51035;DHT22;37062;52.546;13.230;2023-11-21T14:46:53;5.30;99.90
51035;DHT22;37062;52.546;13.230;2023-11-21T14:49:26;5.20;99.90
51035;DHT22;37062;52.546;13.230;2023-11-21T14:52:03;5.00;99.90
51035;DHT22;37062;52.546;13.230;2023-11-21T14:54:34;5.00;99.90
51035;DHT22;37062;52.546;13.230;2023-11-21T14:57:09;5.00;99.90
51035;DHT22;37062;52.546;13.230;2023-11-21T14:59:44;5.00;99.90
51035;DHT22;37062;52.546;13.230;2023-11-21T15:02:15;5.00;99.90
51035;DHT22;37062;52.546;13.230;2023-11-21T15:04:48;5.00;99.90
51035;DHT22;37062;52.546;13.230;2023-11-21T15:07:19;4.90;99.90
51035;DHT22;37062;52.546;13.230;2023-11-21T15:09:47;4.80;99.90
51035;DHT22;37062;52.546;13.230;2023-11-21T15:12:16;4.80;99.90
51035;DHT22;37062;52.546;13.230;2023-11-21T15:14:47;4.90;99.90
51035;DHT22;37062;52.546;13.230;2023-11-21T15:17:19;4.90;99.90
51035;DHT22;37062;52.546;13.230;2023-11-21T15:19:54;4.80;99.90
51035;DHT22;37062;52.546;13.230;2023-11-21T15:22:22;4.70;99.90
51035;DHT22;37062;52.546;13.230;2023-11-21T15:24:52;4.70;99.90
51035;DHT22;37062;52.546;13.230;2023-11-21T15:27:21;4.80;99.90
51035;DHT22;37062;52.546;13.230;2023-11-21T15:29:49;4.80;99.90
51035;DHT22;37062;52.546;13.230;2023-11-21T15:32:17;4.80;99.90
51035;DHT22;37062;52.546;13.230;2023-11-21T15:34:46;4.90;99.90
51035;DHT22;37062;52.546;13.230;2023-11-21T15:37:16;4.90;99.90
51035;DHT22;37062;52.546;13.230;2023-11-21T15:39:44;4.90;99.90
51035;DHT22;37062;52.546;13.230;2023-11-21T15:42:13;4.90;99.90
51035;DHT22;37062;52.546;13.230;2023-11-21T15:44:41;4.80;99.90
51035;DHT22;37062;52.546;13.230;2023-11-21T15:47:10;4.80;99.90
51035;DHT22;37062;52.546;13.230;2023-11-21T15:49:38;4.80;99.90
51035;DHT22;37062;52.546;13.230;2023-11-21T15:52:07;4.80;99.90